Time;durP1;ratioP1;P1;durP2;ratioP2;P2;SDS_P1;SDS_P2;PMS_P1;PMS_P2;Temp;Humidity;BMP_temperature;BMP_pressure;BME280_temperature;BME280_humidity;BME280_pressure;Samples;Min_cycle;Max_cycle;Signal;HPM_P1;HPM_P2
2021/05/16 08:49:07;;;;;;;9.40;2.85;;;18.40;85.30;;;;;;6342781;27;20367;-80
2021/05/16 08:52:08;;;;;;;10.73;2.95;;;;;;;;;;6328544;28;20036;-79
2021/05/16 08:55:12;;;;;;;6.97;2.65;;;18.50;95.30;;;;;;6345026;28;20101;-79
2021/05/16 08:58:13;;;;;;;5.25;3.00;;;;;;;;;;6331944;28;20043;-79
2021/05/16 09:01:23;;;;;;;4.68;2.70;;;18.00;80.70;;;;;;6343672;28;20501;-78
2021/05/16 09:04:35;;;;;;;6.80;2.58;;;17.70;98.40;;;;;;6331570;28;20420;-80
2021/05/16 09:07:36;;;;;;;6.68;2.55;;;;;;;;;;6335286;28;20040;-80
2021/05/16 09:10:37;;;;;;;6.95;2.75;;;17.80;89.10;;;;;;6357215;28;20019;-79
2021/05/16 09:13:44;;;;;;;5.57;2.40;;;;;;;;;;6331708;28;20477;-79
2021/05/16 09:16:45;;;;;;;5.45;3.00;;;;;;;;;;6305231;28;20480;-78
2021/05/16 09:19:48;;;;;;;6.40;2.50;;;;;;;;;;6339665;28;20059;-80
2021/05/16 09:22:49;;;;;;;5.50;2.50;;;19.00;96.00;;;;;;6340758;28;20019;-80
2021/05/16 09:25:50;;;;;;;4.90;2.30;;;19.00;87.10;;;;;;6329427;28;20589;-80
2021/05/16 09:28:51;;;;;;;5.70;2.83;;;19.40;70.10;;;;;;6340293;28;20043;-81
2021/05/16 09:31:51;;;;;;;6.85;2.85;;;19.10;70.00;;;;;;6303920;28;20028;-80
2021/05/16 09:34:53;;;;;;;5.95;2.67;;;18.70;89.40;;;;;;6334810;28;20049;-80
2021/05/16 09:38:02;;;;;;;4.97;2.30;;;18.50;71.80;;;;;;6362908;28;20431;-79
2021/05/16 09:41:04;;;;;;;6.15;2.92;;;18.50;69.80;;;;;;6347631;28;20034;-81
2021/05/16 09:44:04;;;;;;;6.90;2.88;;;18.40;71.20;;;;;;6362754;28;20031;-80
2021/05/16 09:47:06;;;;;;;5.22;3.03;;;18.20;86.20;;;;;;6345410;28;20142;-80
2021/05/16 09:50:06;;;;;;;5.05;2.03;;;18.20;90.40;;;;;;6356858;28;20038;-80
2021/05/16 09:53:07;;;;;;;8.68;2.42;;;18.10;74.10;;;;;;6320296;28;20024;-81
2021/05/16 09:56:14;;;;;;;5.75;1.98;;;18.00;75.90;;;;;;6320171;28;20116;-80
2021/05/16 09:59:16;;;;;;;6.00;2.47;;;18.10;73.30;;;;;;6327381;28;20031;-81
2021/05/16 10:02:16;;;;;;;6.80;3.33;;;18.00;75.10;;;;;;6331002;28;20054;-81
2021/05/16 10:05:17;;;;;;;11.93;6.85;;;18.20;73.40;;;;;;6328401;28;20262;-80
2021/05/16 10:08:18;;;;;;;6.25;2.70;;;18.20;73.20;;;;;;6340276;28;20513;-80
2021/05/16 10:11:27;;;;;;;5.22;2.90;;;18.30;72.10;;;;;;6286980;28;20078;-80
2021/05/16 10:14:28;;;;;;;3.60;2.20;;;18.30;72.40;;;;;;6303922;28;20031;-82
2021/05/16 10:17:34;;;;;;;7.65;2.35;;;18.30;69.60;;;;;;6286203;28;20363;-82
2021/05/16 10:20:37;;;;;;;4.25;2.47;;;17.60;72.60;;;;;;6303220;28;20036;-82
2021/05/16 10:23:38;;;;;;;6.65;2.70;;;17.30;74.10;;;;;;6303264;28;20492;-81
2021/05/16 10:26:40;;;;;;;5.10;2.60;;;17.00;74.50;;;;;;6286130;28;20036;-83
2021/05/16 10:29:54;;;;;;;3.97;1.93;;;17.20;76.80;;;;;;6286163;28;20032;-88
2021/05/16 10:32:55;;;;;;;4.35;2.70;;;17.00;91.70;;;;;;6312024;28;20035;-84
2021/05/16 10:35:58;;;;;;;12.27;2.72;;;16.90;92.20;;;;;;6307835;28;20046;-86
2021/05/16 10:38:59;;;;;;;6.75;2.60;;;17.10;91.20;;;;;;6296243;28;20032;-83
2021/05/16 10:42:22;;;;;;;6.55;2.75;;;17.00;91.70;;;;;;6281613;28;20027;-83
2021/05/16 10:45:34;;;;;;;8.00;3.05;;;17.60;86.30;;;;;;6298943;28;20028;-84
2021/05/16 10:48:34;;;;;;;6.15;2.42;;;16.90;98.00;;;;;;6349196;27;20063;-83
2021/05/16 10:51:35;;;;;;;3.90;2.35;;;;;;;;;;6311024;28;20032;-86
2021/05/16 10:54:36;;;;;;;6.93;2.40;;;;;;;;;;6327514;28;20431;-86
2021/05/16 10:57:38;;;;;;;5.28;2.10;;;16.90;91.00;;;;;;6315445;28;20124;-86
2021/05/16 11:00:43;;;;;;;4.20;2.40;;;17.10;99.10;;;;;;6285630;28;20038;-87
2021/05/16 11:03:52;;;;;;;7.15;2.53;;;17.30;93.20;;;;;;6291202;28;20777;-86
2021/05/16 11:06:56;;;;;;;4.68;2.83;;;17.50;97.10;;;;;;6300913;28;20070;-84
2021/05/16 11:10:22;;;;;;;3.58;2.13;;;17.30;89.30;;;;;;6276586;28;20047;-86
2021/05/16 11:13:27;;;;;;;4.65;1.90;;;17.30;83.60;;;;;;6324675;28;20023;-87
2021/05/16 11:16:28;;;;;;;8.43;2.25;;;;;;;;;;6295834;28;20040;-87
2021/05/16 11:19:33;;;;;;;3.97;2.10;;;17.40;86.80;;;;;;6306928;28;20050;-85
2021/05/16 11:22:34;;;;;;;4.38;2.25;;;17.40;87.50;;;;;;6301606;28;20024;-85
2021/05/16 11:25:35;;;;;;;5.15;1.98;;;;;;;;;;6284198;28;20035;-83
2021/05/16 11:28:37;;;;;;;2.70;1.77;;;17.10;68.30;;;;;;6292451;28;20035;-82
2021/05/16 11:31:37;;;;;;;2.75;2.10;;;16.80;71.00;;;;;;6300809;28;20024;-84
2021/05/16 11:34:38;;;;;;;7.13;2.35;;;;;;;;;;6303545;28;20065;-84
2021/05/16 11:37:40;;;;;;;5.32;2.22;;;16.90;90.10;;;;;;6343667;28;20034;-84
2021/05/16 11:40:40;;;;;;;5.80;2.20;;;16.80;93.20;;;;;;6309289;28;20160;-84
2021/05/16 11:43:43;;;;;;;3.30;1.98;;;16.80;93.00;;;;;;6326220;28;20028;-87
2021/05/16 11:46:45;;;;;;;3.97;2.28;;;16.90;77.60;;;;;;6326446;28;20397;-87
2021/05/16 11:49:49;;;;;;;5.10;2.72;;;17.00;81.40;;;;;;6305969;28;20450;-86
2021/05/16 11:52:58;;;;;;;5.57;2.03;;;16.70;82.80;;;;;;6278818;28;20389;-85
2021/05/16 11:56:03;;;;;;;6.85;2.50;;;16.40;83.00;;;;;;6291591;28;20027;-86
2021/05/16 11:59:05;;;;;;;5.80;2.40;;;16.00;89.40;;;;;;6312102;28;20026;-86
2021/05/16 12:02:05;;;;;;;2.37;1.90;;;15.90;85.90;;;;;;6324874;28;20110;-87
2021/05/16 12:05:07;;;;;;;3.65;2.58;;;15.80;88.80;;;;;;6275829;28;20024;-87
2021/05/16 12:08:18;;;;;;;3.78;2.20;;;15.80;88.90;;;;;;6278975;28;20140;-87
2021/05/16 12:11:18;;;;;;;6.40;2.10;;;15.40;96.20;;;;;;6296449;28;20028;-86
2021/05/16 12:14:24;;;;;;;5.22;2.20;;;15.60;86.90;;;;;;6333542;28;20055;-85
2021/05/16 12:17:32;;;;;;;6.07;2.22;;;15.70;97.60;;;;;;6290134;28;20039;-86
2021/05/16 12:20:33;;;;;;;3.30;2.17;;;15.50;89.90;;;;;;6285043;28;20027;-87
2021/05/16 12:23:34;;;;;;;6.75;2.55;;;;;;;;;;6313899;28;20036;-85
2021/05/16 12:26:35;;;;;;;5.07;2.50;;;15.20;89.30;;;;;;6313187;28;20081;-82
2021/05/16 12:29:37;;;;;;;6.37;2.23;;;;;;;;;;6314420;28;20039;-87
2021/05/16 12:32:37;;;;;;;7.60;2.63;;;15.20;99.40;;;;;;6305754;28;20081;-84
2021/05/16 12:35:38;;;;;;;7.03;2.90;;;15.40;92.10;;;;;;6276928;28;20032;-85
2021/05/16 12:38:49;;;;;;;6.93;2.70;;;15.10;97.70;;;;;;6288793;28;20105;-87
2021/05/16 12:41:50;;;;;;;5.97;2.92;;;;;;;;;;6280330;28;20397;-84
2021/05/16 12:44:51;;;;;;;6.45;2.35;;;15.20;99.50;;;;;;6292253;28;20477;-87
2021/05/16 12:48:17;;;;;;;3.75;2.60;;;15.30;93.50;;;;;;6303185;28;20075;-84
2021/05/16 12:51:24;;;;;;;3.85;2.40;;;15.30;92.50;;;;;;6313197;28;20043;-85
2021/05/16 12:54:29;;;;;;;11.30;2.53;;;15.30;99.90;;;;;;6335451;28;20355;-80
2021/05/16 13:00:41;;;;;;;7.13;3.20;;;15.40;92.20;;;;;;6292932;28;20031;-83
2021/05/16 13:03:42;;;;;;;11.32;4.93;;;15.80;92.90;;;;;;6289977;28;20115;-83
2021/05/16 13:06:43;;;;;;;9.88;4.38;;;;;;;;;;6282894;28;20040;-80
2021/05/16 13:09:44;;;;;;;3.92;3.10;;;16.10;99.90;;;;;;6299712;28;20035;-79
2021/05/16 13:12:45;;;;;;;4.57;2.50;;;16.00;92.70;;;;;;6304718;28;20031;-80
2021/05/16 13:15:46;;;;;;;3.95;2.53;;;15.60;92.20;;;;;;6307509;28;20461;-86
2021/05/16 13:18:52;;;;;;;5.18;2.47;;;15.60;93.00;;;;;;6291152;28;20115;-83
2021/05/16 13:21:52;;;;;;;3.83;2.10;;;15.60;93.90;;;;;;6277378;28;20050;-82
2021/05/16 13:24:53;;;;;;;3.40;2.25;;;;;;;;;;6285390;28;20028;-83
2021/05/16 13:27:55;;;;;;;6.13;2.90;;;15.10;99.90;;;;;;6305775;28;20039;-85
2021/05/16 13:30:57;;;;;;;3.87;2.57;;;14.90;99.90;;;;;;6287179;28;20028;-80
2021/05/16 13:33:58;;;;;;;;;;;15.10;99.90;;;;;;6301695;28;20073;-81
2021/05/16 13:36:59;;;;;;;9.20;3.00;;;;;;;;;;6336494;28;19908;-88
2021/05/16 13:40:03;;;;;;;6.35;3.03;;;14.60;98.40;;;;;;6320922;28;20084;-86
2021/05/16 13:43:03;;;;;;;5.45;2.80;;;14.60;98.60;;;;;;6301679;28;20034;-85
2021/05/16 13:46:04;;;;;;;5.22;3.22;;;;;;;;;;6295092;28;20023;-86
2021/05/16 13:49:05;;;;;;;4.55;2.53;;;;;;;;;;6338327;28;20145;-86
2021/05/16 13:52:06;;;;;;;5.82;2.83;;;;;;;;;;6325478;28;20028;-86
2021/05/16 13:55:08;;;;;;;7.18;2.88;;;;;;;;;;6328199;28;20034;-86
2021/05/16 13:58:09;;;;;;;4.97;2.63;;;;;;;;;;6320838;28;20572;-86
2021/05/16 14:01:09;;;;;;;3.45;2.10;;;14.80;99.90;;;;;;6325006;28;20019;-87
2021/05/16 14:04:11;;;;;;;4.38;2.42;;;;;;;;;;6321435;28;20050;-86
2021/05/16 14:07:11;;;;;;;7.15;2.50;;;15.00;99.90;;;;;;6321601;28;20036;-83
2021/05/16 14:10:13;;;;;;;4.50;2.67;;;14.90;98.30;;;;;;6287735;28;20089;-89
2021/05/16 14:13:14;;;;;;;3.87;2.30;;;;;;;;;;6292849;28;20138;-86
2021/05/16 14:16:15;;;;;;;6.22;3.17;;;14.90;95.50;;;;;;6291393;28;20107;-84
2021/05/16 14:19:16;;;;;;;4.05;2.70;;;;;;;;;;6291383;28;20032;-85
2021/05/16 14:22:29;;;;;;;;;;;;;;;;;;;;;
2021/05/16 14:33:37;;;;;;;11.18;5.55;;;;;;;;;;6187385;28;20022;-88
2021/05/16 14:36:39;;;;;;;23.17;11.20;;;;;;;;;;6192019;28;20022;-86
2021/05/16 14:39:41;;;;;;;20.25;10.35;;;13.90;94.10;;;;;;6225652;28;20607;-89
2021/05/16 14:42:42;;;;;;;10.75;6.70;;;;;;;;;;6209325;28;20034;-85
2021/05/16 14:45:44;;;;;;;2.30;2.08;;;;;;;;;;6175163;28;20123;-89
2021/05/16 14:48:45;;;;;;;3.50;1.50;;;;;;;;;;6177720;28;20153;-88
2021/05/16 14:51:46;;;;;;;1.20;1.13;;;;;;;;;;6223417;28;20034;-80
2021/05/16 14:54:46;;;;;;;1.48;1.13;;;13.90;99.90;;;;;;6201321;28;20491;-80
2021/05/16 14:57:47;;;;;;;1.00;1.00;;;13.70;99.90;;;;;;6217528;28;20042;-84
2021/05/16 15:00:48;;;;;;;0.88;0.88;;;13.70;94.60;;;;;;6220462;28;20034;-85
2021/05/16 15:03:50;;;;;;;1.00;1.00;;;14.00;94.40;;;;;;6202877;28;20690;-83
2021/05/16 15:06:50;;;;;;;0.65;0.65;;;14.00;94.20;;;;;;6201344;28;20041;-86
2021/05/16 15:09:51;;;;;;;1.35;1.25;;;14.30;99.90;;;;;;6256258;28;20039;-84
2021/05/16 15:12:52;;;;;;;1.35;1.27;;;14.30;93.80;;;;;;6320622;28;20478;-82
2021/05/16 15:15:52;;;;;;;1.52;1.42;;;14.50;93.80;;;;;;6319314;28;20020;-87
2021/05/16 15:18:53;;;;;;;3.55;1.77;;;14.50;99.90;;;;;;6292954;28;20039;-85
2021/05/16 15:21:54;;;;;;;1.67;1.50;;;14.80;99.90;;;;;;6284116;28;20439;-85
2021/05/16 15:24:55;;;;;;;1.80;1.40;;;15.10;99.90;;;;;;6287971;28;20024;-83
2021/05/16 15:27:56;;;;;;;2.60;2.40;;;;;;;;;;6285473;28;20104;-86
2021/05/16 15:30:57;;;;;;;6.43;1.83;;;;;;;;;;6322288;28;20079;-83
2021/05/16 15:33:57;;;;;;;3.67;3.28;;;14.80;99.90;;;;;;6302881;28;20024;-86
2021/05/16 15:36:58;;;;;;;1.27;1.15;;;14.50;99.90;;;;;;6284578;28;20439;-79
2021/05/16 15:39:59;;;;;;;1.38;1.17;;;;;;;;;;6308839;28;20028;-84
2021/05/16 15:43:00;;;;;;;2.90;2.03;;;;;;;;;;6310021;28;20031;-82
2021/05/16 15:46:01;;;;;;;1.50;1.45;;;;;;;;;;6314350;28;20541;-81
2021/05/16 15:49:02;;;;;;;1.95;1.85;;;;;;;;;;6312935;28;20048;-83
2021/05/16 15:52:04;;;;;;;1.08;1.00;;;;;;;;;;6300223;28;20056;-85
2021/05/16 15:55:05;;;;;;;1.63;1.52;;;;;;;;;;6321762;28;20027;-84
2021/05/16 15:58:07;;;;;;;6.20;2.20;;;;;;;;;;6308112;28;20034;-83
2021/05/16 16:01:09;;;;;;;1.25;1.23;;;14.10;99.90;;;;;;6316287;28;20026;-85
2021/05/16 16:04:10;;;;;;;1.40;1.30;;;14.20;99.90;;;;;;6295652;28;20032;-84
2021/05/16 16:07:10;;;;;;;3.20;2.90;;;14.40;96.00;;;;;;6294331;28;20044;-85
2021/05/16 16:10:11;;;;;;;2.25;2.08;;;14.10;99.90;;;;;;6300277;28;20488;-84
2021/05/16 16:13:12;;;;;;;1.65;1.55;;;;;;;;;;6298198;28;20068;-84
2021/05/16 16:16:13;;;;;;;1.45;1.35;;;;;;;;;;6327720;28;20028;-83
2021/05/16 16:19:14;;;;;;;3.38;1.30;;;14.30;94.70;;;;;;6304739;28;20345;-83
2021/05/16 16:22:15;;;;;;;1.73;1.63;;;;;;;;;;6285461;28;20028;-86
2021/05/16 16:25:16;;;;;;;2.13;1.95;;;14.40;94.90;;;;;;6312283;28;20020;-84
2021/05/16 16:28:17;;;;;;;1.52;1.30;;;14.40;95.20;;;;;;6302300;28;20151;-84
2021/05/16 16:31:18;;;;;;;0.77;0.77;;;14.20;99.90;;;;;;6297377;28;20031;-84
2021/05/16 16:34:20;;;;;;;1.10;1.10;;;14.20;98.80;;;;;;6283904;28;20028;-83
2021/05/16 16:37:21;;;;;;;0.80;0.80;;;;;;;;;;6287381;28;20484;-84
2021/05/16 16:40:21;;;;;;;1.45;1.35;;;14.10;99.90;;;;;;6311740;28;20262;-84
2021/05/16 16:43:22;;;;;;;1.63;1.08;;;14.30;99.90;;;;;;6279110;28;20165;-83
2021/05/16 16:46:22;;;;;;;0.90;0.90;;;14.30;93.70;;;;;;6343024;28;20039;-87
2021/05/16 16:49:23;;;;;;;1.00;1.00;;;14.40;93.90;;;;;;6291036;28;20366;-82
2021/05/16 16:52:24;;;;;;;1.17;1.15;;;14.20;93.60;;;;;;6329649;28;20142;-86
2021/05/16 16:55:27;;;;;;;2.20;1.85;;;14.50;94.00;;;;;;6284273;28;20043;-88
2021/05/16 16:58:28;;;;;;;1.10;1.10;;;14.30;99.90;;;;;;6292381;28;20057;-85
2021/05/16 17:01:29;;;;;;;1.30;1.30;;;;;;;;;;6308359;28;20473;-81
2021/05/16 17:04:29;;;;;;;1.63;1.50;;;14.20;92.20;;;;;;6340031;28;20055;-84
2021/05/16 17:07:30;;;;;;;1.25;1.15;;;;;;;;;;6297956;28;20042;-85
2021/05/16 17:10:31;;;;;;;1.33;1.30;;;14.00;91.70;;;;;;6314665;28;20055;-88
2021/05/16 17:13:31;;;;;;;1.10;1.08;;;13.90;94.50;;;;;;6290917;28;20168;-87
2021/05/16 17:16:32;;;;;;;1.23;1.10;;;;;;;;;;6271291;28;20059;-80
2021/05/16 17:19:33;;;;;;;0.85;0.85;;;;;;;;;;6321176;28;20495;-81
2021/05/16 17:22:34;;;;;;;0.98;0.98;;;13.70;92.50;;;;;;6312246;28;20109;-79
2021/05/16 17:25:38;;;;;;;0.98;0.98;;;13.70;94.70;;;;;;6297502;28;20039;-80
2021/05/16 17:28:38;;;;;;;1.05;1.05;;;13.60;99.90;;;;;;6309120;28;20046;-79
2021/05/16 17:31:39;;;;;;;1.52;1.30;;;13.80;94.90;;;;;;6316623;28;20031;-79
2021/05/16 17:34:40;;;;;;;2.30;2.10;;;13.50;94.90;;;;;;6329909;28;20488;-79
2021/05/16 17:37:40;;;;;;;2.25;1.27;;;13.50;95.50;;;;;;6323753;28;20024;-78
2021/05/16 17:40:41;;;;;;;1.17;1.17;;;;;;;;;;6290946;28;20469;-78
2021/05/16 17:43:42;;;;;;;1.55;1.45;;;13.20;99.90;;;;;;6334124;28;20350;-80
2021/05/16 17:46:43;;;;;;;3.75;1.92;;;13.30;99.90;;;;;;6321690;28;20056;-81
2021/05/16 17:49:44;;;;;;;3.03;1.42;;;;;;;;;;6303810;28;20028;-80
2021/05/16 17:52:45;;;;;;;1.77;1.33;;;;;;;;;;6307720;28;20035;-81
2021/05/16 17:55:45;;;;;;;1.50;1.10;;;12.80;99.90;;;;;;6328447;28;20082;-82
2021/05/16 17:58:47;;;;;;;0.98;0.98;;;;;;;;;;6293785;28;20028;-82
2021/05/16 18:01:54;;;;;;;1.40;1.30;;;12.30;98.60;;;;;;6328712;28;20671;-82
2021/05/16 18:04:54;;;;;;;1.05;0.90;;;12.50;99.90;;;;;;6328998;28;20031;-81
2021/05/16 18:07:55;;;;;;;6.28;1.92;;;;;;;;;;6302518;28;20059;-83
2021/05/16 18:10:56;;;;;;;2.75;0.90;;;12.40;99.70;;;;;;6333369;28;20036;-83
2021/05/16 18:13:57;;;;;;;2.95;1.67;;;12.20;99.90;;;;;;6285867;28;20480;-80
2021/05/16 18:16:57;;;;;;;2.05;1.17;;;12.10;99.90;;;;;;6301029;28;20054;-81
2021/05/16 18:20:00;;;;;;;1.15;1.10;;;;;;;;;;6291446;28;20032;-86
2021/05/16 18:23:01;;;;;;;3.25;0.95;;;;;;;;;;6323931;28;20440;-83
2021/05/16 18:26:02;;;;;;;4.60;1.52;;;;;;;;;;6287077;28;20034;-85
2021/05/16 18:29:03;;;;;;;1.27;1.25;;;11.90;99.90;;;;;;6291299;28;20035;-83
2021/05/16 18:32:04;;;;;;;1.50;1.40;;;11.80;99.90;;;;;;6273117;28;20116;-82
2021/05/16 18:35:07;;;;;;;1.33;1.23;;;11.50;99.90;;;;;;6285396;28;20032;-82
2021/05/16 18:38:08;;;;;;;1.25;1.15;;;11.50;99.90;;;;;;6285311;28;20020;-82
2021/05/16 18:41:09;;;;;;;1.08;1.08;;;11.20;99.90;;;;;;6324266;28;20450;-84
2021/05/16 18:44:10;;;;;;;1.88;1.13;;;11.40;99.90;;;;;;6289663;28;20028;-83
2021/05/16 18:47:11;;;;;;;1.80;1.17;;;11.50;99.90;;;;;;6286715;28;20089;-84
2021/05/16 18:50:15;;;;;;;1.95;1.10;;;11.10;99.90;;;;;;6290228;28;20461;-83
2021/05/16 18:53:17;;;;;;;5.05;1.45;;;;;;;;;;6284997;28;20024;-81
2021/05/16 18:56:17;;;;;;;0.82;0.77;;;11.20;99.90;;;;;;6318575;28;20461;-86
2021/05/16 18:59:18;;;;;;;2.05;1.70;;;11.00;99.90;;;;;;6291676;28;20032;-86
2021/05/16 19:02:19;;;;;;;2.60;1.50;;;11.30;99.90;;;;;;6290952;28;20103;-87
2021/05/16 19:05:20;;;;;;;0.98;0.98;;;;;;;;;;6284599;28;20028;-85
2021/05/16 19:08:21;;;;;;;2.22;1.15;;;11.00;99.90;;;;;;6304947;28;20074;-82
2021/05/16 19:11:22;;;;;;;1.30;1.20;;;;;;;;;;6288632;28;20032;-84
2021/05/16 19:14:23;;;;;;;2.38;1.75;;;;;;;;;;6304317;28;20472;-83
2021/05/16 19:17:24;;;;;;;2.00;1.73;;;10.80;99.90;;;;;;6305148;28;20032;-83
2021/05/16 19:20:25;;;;;;;2.10;2.00;;;;;;;;;;6289608;28;20156;-85
2021/05/16 19:23:26;;;;;;;2.45;1.45;;;11.20;99.90;;;;;;6321663;28;20052;-83
2021/05/16 19:26:27;;;;;;;2.83;2.55;;;;;;;;;;6303344;28;20416;-84
2021/05/16 19:29:28;;;;;;;1.48;1.33;;;;;;;;;;6302633;28;20035;-83
2021/05/16 19:32:28;;;;;;;1.42;1.30;;;11.10;99.90;;;;;;6316778;28;20093;-83
2021/05/16 19:35:29;;;;;;;2.25;1.98;;;11.10;99.90;;;;;;6285956;28;20525;-83
2021/05/16 19:38:30;;;;;;;3.00;1.42;;;11.10;99.90;;;;;;6302557;28;20020;-84
2021/05/16 19:41:30;;;;;;;1.20;1.13;;;10.90;99.90;;;;;;6283721;28;20024;-81
2021/05/16 19:44:31;;;;;;;3.05;2.05;;;11.10;99.90;;;;;;6284375;28;20024;-81
2021/05/16 19:47:32;;;;;;;2.15;1.98;;;;;;;;;;6283626;28;20529;-82
2021/05/16 19:50:34;;;;;;;12.55;6.95;;;11.10;99.90;;;;;;6319277;28;20023;-84
2021/05/16 19:53:35;;;;;;;3.70;2.17;;;11.10;99.90;;;;;;6283965;28;20032;-81
2021/05/16 19:56:36;;;;;;;5.30;2.40;;;;;;;;;;6316835;28;20028;-82
2021/05/16 19:59:37;;;;;;;2.95;2.72;;;10.80;99.90;;;;;;6317711;28;20056;-82
2021/05/16 20:02:39;;;;;;;3.55;2.50;;;10.60;99.90;;;;;;6289128;28;20101;-83
2021/05/16 20:05:40;;;;;;;5.03;4.53;;;10.40;99.90;;;;;;6287286;28;20024;-82
2021/05/16 20:08:41;;;;;;;6.38;3.10;;;10.10;99.90;;;;;;6302902;28;20076;-82
2021/05/16 20:11:41;;;;;;;2.33;1.95;;;10.40;99.90;;;;;;6287092;28;20032;-82
2021/05/16 20:14:43;;;;;;;3.97;3.20;;;8.90;99.90;;;;;;6304556;28;20072;-82
2021/05/16 20:17:44;;;;;;;4.85;3.50;;;10.30;99.90;;;;;;6300680;28;20150;-82
2021/05/16 20:20:45;;;;;;;3.75;2.10;;;10.30;99.90;;;;;;6288853;28;20024;-82
2021/05/16 20:23:46;;;;;;;4.07;2.92;;;;;;;;;;6319906;28;20109;-81
2021/05/16 20:26:47;;;;;;;5.30;3.55;;;10.10;99.90;;;;;;6302147;28;20020;-81
2021/05/16 20:29:52;;;;;;;3.65;2.63;;;10.50;99.90;;;;;;6285562;28;20020;-80
2021/05/16 20:32:54;;;;;;;4.68;1.90;;;9.90;99.90;;;;;;6318167;28;20056;-83
2021/05/16 20:35:55;;;;;;;1.83;1.60;;;;;;;;;;6283009;28;20521;-81
2021/05/16 20:38:56;;;;;;;2.05;1.92;;;9.50;99.90;;;;;;6322356;28;20382;-81
2021/05/16 20:41:57;;;;;;;4.22;3.33;;;9.60;99.90;;;;;;6316179;28;20024;-82
2021/05/16 20:44:58;;;;;;;3.15;2.10;;;;;;;;;;6302540;28;20059;-82
2021/05/16 20:47:59;;;;;;;7.07;2.30;;;;;;;;;;6300282;28;20440;-86
2021/05/16 20:51:01;;;;;;;8.63;3.03;;;9.50;99.90;;;;;;6286127;28;20382;-82
2021/05/16 20:54:02;;;;;;;4.38;2.60;;;10.20;99.90;;;;;;6301756;28;20046;-84
2021/05/16 20:57:02;;;;;;;6.90;2.70;;;10.60;99.90;;;;;;6271786;28;20040;-80
2021/05/16 21:00:08;;;;;;;4.63;2.00;;;10.40;99.90;;;;;;6292064;28;20066;-80
2021/05/16 21:03:09;;;;;;;2.83;2.00;;;10.70;99.90;;;;;;6325964;28;20181;-79
2021/05/16 21:06:10;;;;;;;4.32;2.47;;;10.60;99.90;;;;;;6282613;28;20420;-80
2021/05/16 21:09:10;;;;;;;3.92;2.03;;;10.30;99.90;;;;;;6281622;28;20064;-80
2021/05/16 21:12:13;;;;;;;3.38;1.60;;;10.40;99.90;;;;;;6315979;28;20024;-80
2021/05/16 21:15:15;;;;;;;5.15;2.20;;;10.10;99.90;;;;;;6287456;28;20147;-80
2021/05/16 21:18:16;;;;;;;3.92;2.65;;;10.00;99.90;;;;;;6268062;28;20378;-81
2021/05/16 21:21:17;;;;;;;2.75;2.10;;;10.70;99.90;;;;;;6283613;28;20028;-80
2021/05/16 21:24:17;;;;;;;2.17;1.90;;;10.10;99.90;;;;;;6302112;28;20023;-80
2021/05/16 21:27:18;;;;;;;1.63;1.50;;;;;;;;;;6316810;28;20085;-80
2021/05/16 21:30:20;;;;;;;3.20;1.83;;;9.70;99.90;;;;;;6283987;28;20060;-81
2021/05/16 21:33:21;;;;;;;3.23;1.60;;;10.00;99.90;;;;;;6266850;28;20032;-80
2021/05/16 21:36:21;;;;;;;1.90;1.80;;;9.60;99.90;;;;;;6299665;28;20116;-80
2021/05/16 21:39:22;;;;;;;2.85;2.30;;;;;;;;;;6317558;28;20054;-80
2021/05/16 21:42:23;;;;;;;4.75;2.55;;;10.00;99.90;;;;;;6298610;28;20036;-80
2021/05/16 21:45:23;;;;;;;3.42;2.38;;;9.10;99.90;;;;;;6301900;28;20024;-80
2021/05/16 21:48:24;;;;;;;6.00;2.60;;;10.10;99.90;;;;;;6303553;28;20066;-79
2021/05/16 21:51:24;;;;;;;3.00;1.90;;;9.90;99.90;;;;;;6302193;28;20400;-80
2021/05/16 21:54:25;;;;;;;2.28;1.80;;;10.10;99.90;;;;;;6317569;28;20031;-79
2021/05/16 21:57:27;;;;;;;1.77;1.55;;;9.80;99.90;;;;;;6320840;28;20036;-80
2021/05/16 22:00:29;;;;;;;4.38;1.85;;;10.10;99.90;;;;;;6305444;28;20024;-80
2021/05/16 22:03:30;;;;;;;1.40;1.25;;;;;;;;;;6305149;28;20115;-80
2021/05/16 22:06:31;;;;;;;1.05;1.00;;;;;;;;;;6303954;28;20031;-80
2021/05/16 22:09:33;;;;;;;3.25;1.50;;;;;;;;;;6319057;28;20489;-80
2021/05/16 22:12:34;;;;;;;0.90;0.90;;;;;;;;;;6328706;28;20031;-80
2021/05/16 22:15:35;;;;;;;2.13;0.82;;;9.80;99.90;;;;;;6315392;28;20378;-79
2021/05/16 22:18:38;;;;;;;1.20;1.10;;;;;;;;;;6286618;28;20082;-79
2021/05/16 22:21:39;;;;;;;1.58;1.05;;;9.80;99.90;;;;;;6321466;28;20028;-80
2021/05/16 22:24:39;;;;;;;1.35;0.93;;;9.70;99.90;;;;;;6315501;28;20481;-80
2021/05/16 22:27:41;;;;;;;1.13;1.08;;;;;;;;;;6318262;28;20161;-80
2021/05/16 22:30:42;;;;;;;1.58;1.35;;;9.80;99.90;;;;;;6327734;28;20019;-80
2021/05/16 22:33:43;;;;;;;1.67;1.48;;;;;;;;;;6324854;28;20027;-81
2021/05/16 22:36:44;;;;;;;2.55;2.22;;;;;;;;;;6319611;28;20106;-81
2021/05/16 22:39:47;;;;;;;3.63;3.10;;;8.10;99.90;;;;;;6320739;28;20020;-80
2021/05/16 22:42:48;;;;;;;3.20;2.90;;;9.80;99.90;;;;;;6302390;28;20055;-80
2021/05/16 22:45:49;;;;;;;1.83;1.27;;;9.80;99.90;;;;;;6305083;28;20735;-80
2021/05/16 22:48:50;;;;;;;5.57;1.10;;;;;;;;;;6341293;28;20104;-80
2021/05/16 22:51:53;;;;;;;1.52;1.42;;;9.60;99.90;;;;;;6345637;28;20031;-80
2021/05/16 22:54:54;;;;;;;1.88;1.27;;;;;;;;;;6312161;28;20451;-81
2021/05/16 22:57:54;;;;;;;1.00;1.00;;;9.60;99.90;;;;;;6319192;28;20031;-80
2021/05/16 23:00:55;;;;;;;1.50;1.02;;;9.50;99.90;;;;;;6319132;28;20024;-80
2021/05/16 23:03:56;;;;;;;0.95;0.95;;;;;;;;;;6320314;28;20111;-80
2021/05/16 23:06:57;;;;;;;1.33;0.95;;;;;;;;;;6337563;28;20070;-81
2021/05/16 23:09:58;;;;;;;2.42;1.10;;;9.40;99.90;;;;;;6332090;28;20532;-81
2021/05/16 23:13:00;;;;;;;2.50;1.20;;;9.40;99.90;;;;;;6333685;28;20072;-81
2021/05/16 23:16:01;;;;;;;1.17;1.13;;;;;;;;;;6300692;28;20028;-81
2021/05/16 23:19:02;;;;;;;1.92;1.10;;;9.30;99.90;;;;;;6318382;28;20261;-81
2021/05/16 23:22:03;;;;;;;4.45;1.40;;;9.30;99.90;;;;;;6320733;28;20420;-80
2021/05/16 23:25:05;;;;;;;1.73;1.30;;;9.40;99.90;;;;;;6326902;28;20146;-81
2021/05/16 23:28:06;;;;;;;2.70;1.20;;;9.70;99.90;;;;;;6326822;28;20365;-81
2021/05/16 23:31:09;;;;;;;1.60;1.27;;;9.30;99.90;;;;;;6329043;28;20047;-80
2021/05/16 23:34:09;;;;;;;2.00;0.98;;;9.20;99.90;;;;;;6301281;28;20032;-80
2021/05/16 23:37:10;;;;;;;1.48;1.23;;;9.50;99.90;;;;;;6301225;28;20081;-81
2021/05/16 23:40:14;;;;;;;1.77;1.08;;;9.30;99.90;;;;;;6301047;28;20028;-81
2021/05/16 23:43:15;;;;;;;1.63;1.10;;;9.10;99.90;;;;;;6301321;28;20035;-81
2021/05/16 23:46:15;;;;;;;1.05;0.90;;;9.30;99.90;;;;;;6284121;28;20099;-81
2021/05/16 23:49:16;;;;;;;1.33;0.85;;;;;;;;;;6300946;28;20082;-81
2021/05/16 23:52:17;;;;;;;1.83;0.70;;;9.20;99.90;;;;;;6313770;28;20374;-81
2021/05/16 23:55:18;;;;;;;1.58;0.50;;;;;;;;;;6317730;28;20039;-81
2021/05/16 23:58:19;;;;;;;1.92;0.80;;;9.30;99.90;;;;;;6318748;28;20039;-81
